Time;durP1;ratioP1;P1;durP2;ratioP2;P2;SDS_P1;SDS_P2;PMS_P1;PMS_P2;Temp;Humidity;BMP_temperature;BMP_pressure;BME280_temperature;BME280_humidity;BME280_pressure;Samples;Min_cycle;Max_cycle;Signal;HPM_P1;HPM_P2
2022/07/30 00:00:06;;;;;;;9.07;5.10;;;18.30;99.90;;;;;;5076634;28;20220;-63
2022/07/30 00:02:32;;;;;;;9.77;5.60;;;18.30;99.90;;;;;;5076258;28;20216;-62
2022/07/30 00:04:58;;;;;;;9.52;5.68;;;18.30;99.90;;;;;;5076218;28;20245;-63
2022/07/30 00:07:24;;;;;;;6.80;5.05;;;18.20;99.90;;;;;;5076616;28;20174;-62
2022/07/30 00:09:50;;;;;;;6.03;4.65;;;18.20;99.90;;;;;;5076685;28;20170;-64
2022/07/30 00:12:16;;;;;;;8.50;4.90;;;18.10;99.90;;;;;;5076106;28;20654;-63
2022/07/30 00:14:41;;;;;;;7.30;4.93;;;18.10;99.90;;;;;;5074939;28;20276;-63
2022/07/30 00:17:07;;;;;;;10.13;5.20;;;18.10;99.90;;;;;;5076399;28;20661;-62
2022/07/30 00:19:33;;;;;;;12.38;5.85;;;18.00;99.90;;;;;;5076472;28;20194;-62
2022/07/30 00:21:59;;;;;;;8.80;5.63;;;17.90;99.90;;;;;;5091783;28;20178;-63
2022/07/30 00:24:25;;;;;;;9.45;5.53;;;17.90;99.90;;;;;;5091237;28;20198;-63
2022/07/30 00:26:50;;;;;;;9.98;5.35;;;17.90;99.90;;;;;;5075801;28;20186;-63
2022/07/30 00:29:16;;;;;;;7.32;5.47;;;17.80;99.90;;;;;;5076198;28;20224;-63
2022/07/30 00:31:42;;;;;;;8.82;5.72;;;17.70;99.90;;;;;;5075766;28;20180;-63
2022/07/30 00:34:08;;;;;;;8.40;5.50;;;17.60;99.90;;;;;;5075657;28;20201;-62
2022/07/30 00:36:34;;;;;;;6.65;4.97;;;17.60;99.90;;;;;;5076073;28;20622;-63
2022/07/30 00:39:00;;;;;;;8.10;5.13;;;17.60;99.90;;;;;;5090944;28;20686;-63
2022/07/30 00:41:26;;;;;;;8.20;4.72;;;17.60;99.90;;;;;;5075867;28;20271;-63
2022/07/30 00:43:52;;;;;;;9.10;5.72;;;17.50;99.90;;;;;;5075665;28;20169;-62
2022/07/30 00:46:18;;;;;;;10.48;5.50;;;17.50;99.90;;;;;;5075630;28;20174;-62
2022/07/30 00:48:44;;;;;;;9.75;5.20;;;17.50;99.90;;;;;;5076454;28;20177;-63
2022/07/30 00:51:10;;;;;;;8.40;5.45;;;17.50;99.90;;;;;;5075710;28;20185;-63
2022/07/30 00:53:37;;;;;;;7.60;5.50;;;17.50;99.90;;;;;;5075414;28;20173;-63
2022/07/30 00:56:03;;;;;;;8.32;5.22;;;17.50;99.90;;;;;;5075848;28;20162;-62
2022/07/30 00:58:29;;;;;;;6.95;5.40;;;17.40;99.90;;;;;;5090951;28;20209;-63
2022/07/30 01:00:55;;;;;;;6.63;5.32;;;17.30;99.90;;;;;;5075505;28;20188;-63
2022/07/30 01:03:21;;;;;;;10.20;5.15;;;17.30;99.90;;;;;;5075190;28;20223;-63
2022/07/30 01:05:46;;;;;;;8.30;4.82;;;17.30;99.90;;;;;;5075191;28;20193;-62
2022/07/30 01:08:12;;;;;;;8.82;5.80;;;17.20;99.90;;;;;;5074803;28;20199;-62
2022/07/30 01:10:38;;;;;;;8.82;5.25;;;17.20;99.90;;;;;;5075096;28;20260;-63
2022/07/30 01:13:05;;;;;;;8.50;5.70;;;17.10;99.90;;;;;;5075274;28;20216;-63
2022/07/30 01:15:31;;;;;;;7.47;5.78;;;16.90;99.90;;;;;;5074736;28;20200;-63
2022/07/30 01:18:02;;;;;;;8.02;5.80;;;16.80;99.90;;;;;;5075181;28;20201;-63
2022/07/30 01:21:03;;;;;;;9.18;5.47;;;16.70;99.90;;;;;;5075439;28;20598;-62
2022/07/30 01:23:44;;;;;;;7.38;5.68;;;16.70;99.90;;;;;;5064179;28;20181;-63
2022/07/30 01:26:18;;;;;;;6.22;5.50;;;16.60;99.90;;;;;;5075449;28;20184;-63
2022/07/30 01:28:50;;;;;;;7.10;5.50;;;16.60;99.90;;;;;;5075941;28;20170;-63
2022/07/30 01:31:17;;;;;;;7.75;5.45;;;16.60;99.90;;;;;;5075460;28;20615;-63
2022/07/30 01:33:46;;;;;;;8.77;5.70;;;16.60;99.90;;;;;;5074620;28;20178;-64
2022/07/30 01:36:15;;;;;;;7.38;5.20;;;16.60;99.90;;;;;;5074535;28;20169;-63
2022/07/30 01:38:43;;;;;;;7.05;5.28;;;16.60;99.90;;;;;;5074509;28;20197;-63
2022/07/30 01:41:11;;;;;;;9.23;5.47;;;16.60;99.90;;;;;;5090042;28;20587;-63
2022/07/30 01:43:38;;;;;;;8.07;5.38;;;16.50;99.90;;;;;;5074348;28;20166;-63
2022/07/30 01:46:06;;;;;;;6.88;5.20;;;16.50;99.90;;;;;;5074559;28;20177;-63
2022/07/30 01:48:35;;;;;;;6.75;5.18;;;16.50;99.90;;;;;;5074298;28;20294;-63
2022/07/30 01:51:05;;;;;;;9.60;6.35;;;16.40;99.90;;;;;;5074095;28;20253;-63
2022/07/30 01:53:35;;;;;;;8.52;5.45;;;16.30;99.90;;;;;;5089602;28;20178;-63
2022/07/30 01:56:02;;;;;;;8.38;6.07;;;16.20;99.90;;;;;;5074487;28;20260;-63
2022/07/30 01:58:32;;;;;;;8.13;5.47;;;16.10;99.90;;;;;;5074421;28;20177;-63
2022/07/30 02:00:58;;;;;;;7.07;5.60;;;16.10;99.90;;;;;;5089691;28;20172;-63
2022/07/30 02:03:25;;;;;;;8.68;5.55;;;16.10;99.90;;;;;;5074208;28;20190;-63
2022/07/30 02:06:06;;;;;;;8.35;5.55;;;16.10;99.90;;;;;;5073797;28;20198;-63
2022/07/30 02:08:39;;;;;;;6.43;5.18;;;16.10;99.90;;;;;;5074157;28;20158;-63
2022/07/30 02:11:10;;;;;;;7.97;5.68;;;16.10;99.90;;;;;;5074558;28;20179;-62
2022/07/30 02:13:46;;;;;;;7.70;5.47;;;16.10;99.90;;;;;;5073959;28;20174;-63
2022/07/30 02:16:26;;;;;;;8.10;5.97;;;16.10;99.90;;;;;;5089163;28;20670;-63
2022/07/30 02:19:01;;;;;;;9.68;5.68;;;16.10;99.90;;;;;;5089360;28;20205;-63
2022/07/30 02:21:36;;;;;;;8.45;5.90;;;16.10;99.90;;;;;;5073695;28;20157;-63
2022/07/30 02:24:06;;;;;;;9.20;5.95;;;16.00;99.90;;;;;;5089123;28;20276;-63
2022/07/30 02:26:34;;;;;;;7.57;5.93;;;15.90;99.90;;;;;;5073578;28;20170;-64
2022/07/30 02:29:02;;;;;;;7.50;5.95;;;15.80;99.90;;;;;;5089213;28;20553;-63
2022/07/30 02:31:30;;;;;;;8.23;6.25;;;15.80;99.90;;;;;;5073611;28;20177;-63
2022/07/30 02:34:01;;;;;;;8.85;6.00;;;15.70;99.90;;;;;;5073392;28;20189;-63
2022/07/30 02:36:30;;;;;;;9.85;5.95;;;15.70;99.90;;;;;;5073783;28;20158;-63
2022/07/30 02:38:57;;;;;;;9.32;6.63;;;15.60;99.90;;;;;;5072465;28;20563;-63
2022/07/30 02:41:25;;;;;;;8.90;6.47;;;15.50;99.90;;;;;;5073493;28;20166;-63
2022/07/30 02:43:52;;;;;;;7.88;7.07;;;15.50;99.90;;;;;;5073362;28;20185;-63
2022/07/30 02:46:20;;;;;;;10.65;6.60;;;15.50;99.90;;;;;;5073452;28;20170;-63
2022/07/30 02:48:48;;;;;;;8.98;6.88;;;15.50;99.90;;;;;;5073409;28;20201;-63
2022/07/30 02:51:17;;;;;;;10.60;7.75;;;15.40;99.90;;;;;;5073368;28;20649;-63
2022/07/30 02:53:45;;;;;;;10.85;7.53;;;15.40;99.90;;;;;;5072995;28;20579;-64
2022/07/30 02:56:12;;;;;;;11.65;8.00;;;15.30;99.90;;;;;;5073363;28;20185;-63
2022/07/30 02:58:39;;;;;;;10.68;7.00;;;15.30;99.90;;;;;;5073314;28;20658;-63
2022/07/30 03:01:06;;;;;;;10.05;7.32;;;15.30;99.90;;;;;;5073411;28;20170;-63
2022/07/30 03:03:32;;;;;;;9.88;7.22;;;15.30;99.90;;;;;;5073751;28;20534;-63
2022/07/30 03:05:59;;;;;;;8.30;6.95;;;15.30;99.90;;;;;;5073071;28;20288;-63
2022/07/30 03:08:28;;;;;;;10.10;7.10;;;15.20;99.90;;;;;;5073073;28;20170;-63
2022/07/30 03:10:55;;;;;;;13.57;7.28;;;15.10;99.90;;;;;;5088794;28;20211;-63
2022/07/30 03:13:23;;;;;;;9.88;7.13;;;15.20;99.90;;;;;;5073547;28;20619;-63
2022/07/30 03:15:51;;;;;;;11.38;7.65;;;15.10;99.90;;;;;;5072950;28;20216;-63
2022/07/30 03:18:19;;;;;;;10.52;7.72;;;15.10;99.90;;;;;;5055166;28;20220;-63
2022/07/30 03:20:48;;;;;;;11.23;7.53;;;15.10;99.90;;;;;;5073166;28;20174;-62
2022/07/30 03:23:17;;;;;;;9.02;7.65;;;15.10;99.90;;;;;;5072808;28;20178;-62
2022/07/30 03:25:53;;;;;;;10.63;7.90;;;15.10;99.90;;;;;;5073527;28;20193;-63
2022/07/30 03:28:21;;;;;;;10.18;7.45;;;15.10;99.90;;;;;;5073153;28;20164;-62
2022/07/30 03:30:46;;;;;;;12.45;7.90;;;15.00;99.90;;;;;;5073650;28;20161;-62
2022/07/30 03:33:14;;;;;;;11.32;7.78;;;15.00;99.90;;;;;;5073083;28;20173;-63
2022/07/30 03:35:42;;;;;;;12.65;8.10;;;15.00;99.90;;;;;;5072782;28;20202;-63
2022/07/30 03:38:12;;;;;;;12.02;8.18;;;15.00;99.90;;;;;;5072921;28;20174;-63
2022/07/30 03:40:40;;;;;;;14.63;8.73;;;14.90;99.90;;;;;;5088637;28;20247;-63
2022/07/30 03:43:09;;;;;;;11.82;8.25;;;14.80;99.90;;;;;;5089175;28;20256;-65
2022/07/30 03:45:40;;;;;;;11.75;8.10;;;14.80;99.90;;;;;;5073410;28;20186;-67
2022/07/30 03:48:08;;;;;;;9.35;7.20;;;14.80;99.90;;;;;;5073497;28;20176;-66
2022/07/30 03:50:39;;;;;;;11.82;8.23;;;14.80;99.90;;;;;;5092556;28;20664;-66
2022/07/30 03:53:07;;;;;;;12.93;8.45;;;14.80;99.90;;;;;;5076897;28;20174;-67
2022/07/30 03:55:32;;;;;;;13.63;8.25;;;14.80;99.90;;;;;;5076799;28;20201;-65
2022/07/30 03:58:02;;;;;;;11.38;8.30;;;14.80;99.90;;;;;;5092460;28;20182;-65
2022/07/30 04:00:28;;;;;;;17.27;8.85;;;14.60;99.90;;;;;;5077181;28;20209;-65
2022/07/30 04:02:54;;;;;;;12.65;8.80;;;14.60;99.90;;;;;;5076898;28;20561;-65
2022/07/30 04:05:20;;;;;;;11.85;8.82;;;14.60;99.90;;;;;;5076455;28;20205;-65
2022/07/30 04:07:47;;;;;;;12.80;9.73;;;14.50;99.90;;;;;;5076877;28;20635;-65
2022/07/30 04:10:13;;;;;;;11.82;8.00;;;14.50;99.90;;;;;;5076706;28;20205;-65
2022/07/30 04:12:39;;;;;;;8.80;7.47;;;14.60;99.90;;;;;;5077066;28;20178;-65
2022/07/30 04:15:05;;;;;;;14.32;8.48;;;14.60;99.90;;;;;;5076749;28;20273;-65
2022/07/30 04:17:37;;;;;;;10.65;8.25;;;14.60;99.90;;;;;;5091879;28;20190;-66
2022/07/30 04:20:21;;;;;;;11.93;8.38;;;14.50;99.90;;;;;;5076609;28;20190;-65
2022/07/30 04:22:48;;;;;;;10.57;8.00;;;14.50;99.90;;;;;;5076563;28;20492;-65
2022/07/30 04:25:14;;;;;;;12.35;8.52;;;14.60;99.90;;;;;;5091723;28;20243;-65
2022/07/30 04:27:40;;;;;;;10.52;8.02;;;14.60;99.90;;;;;;5076413;28;20200;-65
2022/07/30 04:30:06;;;;;;;10.68;8.68;;;14.70;99.90;;;;;;5076550;28;20155;-66
2022/07/30 04:32:32;;;;;;;14.00;9.55;;;14.70;99.90;;;;;;5076280;28;20178;-66
2022/07/30 04:34:58;;;;;;;14.70;8.65;;;14.60;99.90;;;;;;5076291;28;20209;-65
2022/07/30 04:37:26;;;;;;;9.82;7.90;;;14.70;99.90;;;;;;5076586;28;20178;-65
2022/07/30 04:39:56;;;;;;;14.40;9.63;;;14.60;99.90;;;;;;5091959;28;20326;-65
2022/07/30 04:42:24;;;;;;;10.88;8.13;;;14.60;99.90;;;;;;5076446;28;20157;-65
2022/07/30 04:44:49;;;;;;;12.90;9.07;;;14.60;99.90;;;;;;5076822;28;20193;-66
2022/07/30 04:47:16;;;;;;;12.85;9.38;;;14.70;99.90;;;;;;5076851;28;20170;-66
2022/07/30 04:49:43;;;;;;;11.15;8.50;;;14.60;99.90;;;;;;5075904;28;20174;-65
2022/07/30 04:52:11;;;;;;;15.23;9.45;;;14.70;99.90;;;;;;5076703;28;20344;-65
2022/07/30 04:54:42;;;;;;;12.50;9.32;;;14.70;99.90;;;;;;5076111;28;20201;-65
2022/07/30 04:57:12;;;;;;;13.23;9.10;;;14.70;99.90;;;;;;5076460;28;20166;-65
2022/07/30 04:59:39;;;;;;;15.43;9.05;;;14.70;99.90;;;;;;5076838;28;20190;-65
2022/07/30 05:02:07;;;;;;;12.13;8.98;;;14.80;99.90;;;;;;5075853;28;20169;-66
2022/07/30 05:04:34;;;;;;;12.98;8.95;;;14.90;99.90;;;;;;5076854;28;20202;-66
2022/07/30 05:07:01;;;;;;;14.50;9.55;;;14.90;99.90;;;;;;5076048;28;20170;-65
2022/07/30 05:09:30;;;;;;;12.60;9.15;;;14.90;99.90;;;;;;5075509;28;20541;-65
2022/07/30 05:11:58;;;;;;;14.52;9.30;;;15.00;99.90;;;;;;5076154;28;20201;-65
2022/07/30 05:14:25;;;;;;;13.95;10.10;;;15.10;99.90;;;;;;5091555;28;20252;-66
2022/07/30 05:16:51;;;;;;;12.35;9.00;;;15.20;99.90;;;;;;5076398;28;20646;-66
2022/07/30 05:19:18;;;;;;;10.98;9.15;;;15.30;99.90;;;;;;5076286;28;20205;-65
2022/07/30 05:21:44;;;;;;;23.15;13.32;;;15.30;99.90;;;;;;5092123;28;20207;-66
2022/07/30 05:24:09;;;;;;;15.77;9.05;;;15.40;99.90;;;;;;5077111;28;20391;-65
2022/07/30 05:26:35;;;;;;;21.10;11.07;;;15.40;99.90;;;;;;5076926;28;20165;-66
2022/07/30 05:29:01;;;;;;;14.73;9.88;;;15.40;99.90;;;;;;5075792;28;20169;-66
2022/07/30 05:31:27;;;;;;;13.68;9.60;;;15.40;99.90;;;;;;5075911;28;20634;-65
2022/07/30 05:33:53;;;;;;;12.48;9.80;;;15.50;99.90;;;;;;5075719;28;20178;-66
2022/07/30 05:36:19;;;;;;;15.45;9.75;;;15.60;99.90;;;;;;5075013;28;20166;-65
2022/07/30 05:38:45;;;;;;;15.70;10.23;;;15.70;99.90;;;;;;5074418;28;20685;-66
2022/07/30 05:41:11;;;;;;;15.40;11.02;;;15.70;99.90;;;;;;5075139;28;20174;-66
2022/07/30 05:43:36;;;;;;;10.90;9.73;;;15.80;99.90;;;;;;5075463;28;20223;-65
2022/07/30 05:46:02;;;;;;;13.43;10.18;;;15.90;99.90;;;;;;5090597;28;20622;-65
2022/07/30 05:48:30;;;;;;;13.15;9.73;;;16.00;99.90;;;;;;5074710;28;20252;-66
2022/07/30 05:50:56;;;;;;;14.15;10.20;;;16.10;99.90;;;;;;5074492;28;20177;-65
2022/07/30 05:53:22;;;;;;;13.23;10.60;;;16.10;99.90;;;;;;5074331;28;20532;-65
2022/07/30 05:55:48;;;;;;;15.90;10.95;;;16.20;99.90;;;;;;5074359;28;20193;-65
2022/07/30 05:58:14;;;;;;;14.75;10.35;;;16.20;99.90;;;;;;5074790;28;20178;-65
2022/07/30 06:00:39;;;;;;;12.95;10.25;;;16.30;99.90;;;;;;5074670;28;20201;-66
2022/07/30 06:03:05;;;;;;;16.17;11.52;;;16.40;99.90;;;;;;5075038;28;20249;-66
2022/07/30 06:05:31;;;;;;;15.90;11.07;;;16.50;99.90;;;;;;5056598;28;20204;-65
2022/07/30 06:07:57;;;;;;;20.10;12.80;;;16.60;99.90;;;;;;5074822;28;20244;-66
2022/07/30 06:10:23;;;;;;;19.13;12.27;;;16.60;99.90;;;;;;5074412;28;20598;-65
2022/07/30 06:12:49;;;;;;;16.20;12.27;;;16.60;99.90;;;;;;5073175;28;20252;-65
2022/07/30 06:15:14;;;;;;;18.05;12.52;;;16.70;99.90;;;;;;5074236;28;20217;-65
2022/07/30 06:17:42;;;;;;;20.17;13.65;;;16.70;99.90;;;;;;5073888;28;20189;-65
2022/07/30 06:20:10;;;;;;;15.77;12.85;;;16.80;99.90;;;;;;5055655;28;20612;-66
2022/07/30 06:22:36;;;;;;;15.68;13.20;;;16.80;99.90;;;;;;5073627;28;20212;-65
2022/07/30 06:25:02;;;;;;;18.02;13.27;;;16.90;99.90;;;;;;5073495;28;20190;-65
2022/07/30 06:27:27;;;;;;;18.58;13.80;;;16.90;99.90;;;;;;5073880;28;20158;-65
2022/07/30 06:29:53;;;;;;;19.90;13.15;;;17.10;99.90;;;;;;5073575;28;20249;-65
2022/07/30 06:32:19;;;;;;;17.73;12.98;;;17.10;99.90;;;;;;5074208;28;20199;-65
2022/07/30 06:34:45;;;;;;;19.10;12.93;;;17.20;99.90;;;;;;5073482;28;20302;-66
2022/07/30 06:37:11;;;;;;;18.35;14.13;;;17.30;99.90;;;;;;5073745;28;20174;-65
2022/07/30 06:39:36;;;;;;;19.88;13.18;;;17.40;99.90;;;;;;5073029;28;20286;-65
2022/07/30 06:42:03;;;;;;;24.55;13.70;;;17.50;99.90;;;;;;5073416;28;20166;-65
2022/07/30 06:44:28;;;;;;;21.67;13.00;;;17.50;99.90;;;;;;5073624;28;20194;-65
2022/07/30 06:46:54;;;;;;;20.00;13.23;;;17.60;99.90;;;;;;5073870;28;20170;-65
2022/07/30 06:49:20;;;;;;;21.25;14.75;;;17.70;99.90;;;;;;5073327;28;20177;-65
2022/07/30 06:51:46;;;;;;;20.15;13.43;;;17.80;99.90;;;;;;5073885;28;20170;-65
2022/07/30 06:54:12;;;;;;;20.48;13.10;;;17.90;99.90;;;;;;5054947;28;20249;-65
2022/07/30 06:56:37;;;;;;;16.90;12.93;;;18.00;99.90;;;;;;5073252;28;20590;-65
2022/07/30 06:59:03;;;;;;;19.27;14.18;;;18.10;99.90;;;;;;5073023;28;20200;-65
2022/07/30 07:01:29;;;;;;;17.67;13.07;;;18.20;99.90;;;;;;5073320;28;20217;-65
2022/07/30 07:03:54;;;;;;;19.38;13.23;;;18.30;99.90;;;;;;5073121;28;20176;-65
2022/07/30 07:06:20;;;;;;;19.42;14.30;;;18.40;99.90;;;;;;5073494;28;20173;-71
2022/07/30 07:08:46;;;;;;;19.67;12.77;;;18.50;99.90;;;;;;5072855;28;20177;-65
2022/07/30 07:11:12;;;;;;;23.00;13.57;;;18.70;99.90;;;;;;5073336;28;20204;-65
2022/07/30 07:13:37;;;;;;;17.45;12.10;;;18.70;99.90;;;;;;5054976;28;20759;-65
2022/07/30 07:16:04;;;;;;;20.40;14.05;;;18.80;99.90;;;;;;5054822;28;20236;-66
2022/07/30 07:18:29;;;;;;;16.90;12.98;;;18.90;99.90;;;;;;5072797;28;20353;-65
2022/07/30 07:20:55;;;;;;;17.13;12.57;;;18.90;99.90;;;;;;5073362;28;20162;-65
2022/07/30 07:23:21;;;;;;;16.55;13.23;;;19.00;99.90;;;;;;5073471;28;20170;-65
2022/07/30 07:25:47;;;;;;;17.10;12.35;;;19.10;99.90;;;;;;5076607;28;20196;-65
2022/07/30 07:28:12;;;;;;;21.52;12.88;;;19.30;99.90;;;;;;5077353;28;20163;-66
2022/07/30 07:30:39;;;;;;;17.30;12.13;;;19.40;99.90;;;;;;5077179;28;20550;-67
2022/07/30 07:33:05;;;;;;;18.25;11.93;;;19.40;99.90;;;;;;5076859;28;20644;-67
2022/07/30 07:35:32;;;;;;;17.10;11.63;;;19.50;99.90;;;;;;5076635;28;20214;-67
2022/07/30 07:37:58;;;;;;;21.67;12.10;;;19.60;99.90;;;;;;5076996;28;20633;-67
2022/07/30 07:40:24;;;;;;;20.48;12.05;;;19.70;99.90;;;;;;5076339;28;20280;-66
2022/07/30 07:42:49;;;;;;;22.98;12.93;;;19.70;99.90;;;;;;5076771;28;20162;-66
2022/07/30 07:45:15;;;;;;;23.33;14.75;;;19.70;99.90;;;;;;5076639;28;20194;-66
2022/07/30 07:47:46;;;;;;;23.27;13.80;;;19.70;99.90;;;;;;5076775;28;20170;-66
2022/07/30 07:50:14;;;;;;;21.30;14.15;;;19.70;99.90;;;;;;5076580;28;20647;-66
2022/07/30 07:52:40;;;;;;;24.67;15.32;;;19.80;99.90;;;;;;5058988;28;20193;-66
2022/07/30 07:55:06;;;;;;;24.27;15.23;;;19.80;99.90;;;;;;5076925;28;20194;-66
2022/07/30 07:57:40;;;;;;;26.75;14.85;;;19.80;99.90;;;;;;5077300;28;20170;-66
2022/07/30 08:00:08;;;;;;;29.73;16.63;;;19.80;99.90;;;;;;5076791;28;20198;-65
2022/07/30 08:02:34;;;;;;;29.30;16.90;;;19.80;99.90;;;;;;5077092;28;20558;-63
2022/07/30 08:05:00;;;;;;;30.75;17.88;;;19.80;99.90;;;;;;5076448;28;20205;-63
2022/07/30 08:07:26;;;;;;;31.05;17.35;;;19.90;99.90;;;;;;5076254;28;20177;-63
2022/07/30 08:09:52;;;;;;;28.77;18.25;;;20.00;99.90;;;;;;5076111;28;20178;-63
2022/07/30 08:12:18;;;;;;;28.55;18.35;;;20.10;99.90;;;;;;5058288;28;20177;-63
2022/07/30 08:14:43;;;;;;;29.65;17.10;;;20.20;99.90;;;;;;5076241;28;20559;-64
2022/07/30 08:17:09;;;;;;;33.42;19.20;;;20.20;99.90;;;;;;5058001;28;20223;-63
2022/07/30 08:19:35;;;;;;;33.88;20.25;;;20.20;99.90;;;;;;5076490;28;20243;-64
2022/07/30 08:22:00;;;;;;;38.42;23.67;;;20.30;99.90;;;;;;5076173;28;20637;-63
2022/07/30 08:24:26;;;;;;;44.90;25.20;;;20.30;99.90;;;;;;5057724;28;20230;-64
2022/07/30 08:26:52;;;;;;;43.13;25.58;;;20.40;99.90;;;;;;5076327;28;20627;-63
2022/07/30 08:29:17;;;;;;;42.03;24.90;;;20.40;99.90;;;;;;5075739;28;20170;-63
2022/07/30 08:31:44;;;;;;;41.38;25.63;;;20.40;99.90;;;;;;5075747;28;20181;-64
2022/07/30 08:34:09;;;;;;;47.08;28.42;;;20.40;99.90;;;;;;5075809;28;20254;-62
2022/07/30 08:36:35;;;;;;;49.08;29.65;;;20.30;99.90;;;;;;5074828;28;20530;-63
2022/07/30 08:39:01;;;;;;;45.47;26.40;;;20.30;99.90;;;;;;5075289;28;20731;-63
2022/07/30 08:41:27;;;;;;;43.13;26.48;;;20.30;99.90;;;;;;5075444;28;20677;-62
2022/07/30 08:43:54;;;;;;;43.88;27.02;;;20.50;99.90;;;;;;5075353;28;20248;-63
2022/07/30 08:46:24;;;;;;;48.10;29.00;;;20.50;99.90;;;;;;5075571;28;20594;-63
2022/07/30 08:48:51;;;;;;;46.58;29.02;;;20.50;99.90;;;;;;5075826;28;20192;-63
2022/07/30 08:51:18;;;;;;;49.05;30.10;;;20.40;99.90;;;;;;5075297;28;20243;-64
2022/07/30 08:53:45;;;;;;;44.90;28.10;;;20.30;99.90;;;;;;5057048;28;20178;-64
2022/07/30 08:56:11;;;;;;;44.80;30.13;;;20.30;99.90;;;;;;5074802;28;20177;-64
2022/07/30 08:58:37;;;;;;;43.83;28.77;;;20.30;99.90;;;;;;5075017;28;20603;-63
2022/07/30 09:01:04;;;;;;;44.78;29.83;;;20.40;99.90;;;;;;5075165;28;20245;-64
2022/07/30 09:03:30;;;;;;;47.35;31.10;;;20.60;99.90;;;;;;5075183;28;20534;-63
2022/07/30 09:05:56;;;;;;;48.33;32.20;;;20.70;99.90;;;;;;5053508;28;20281;-64
2022/07/30 09:08:22;;;;;;;49.15;33.75;;;20.80;99.90;;;;;;5055445;28;20167;-64
2022/07/30 09:10:48;;;;;;;44.92;29.98;;;21.00;99.90;;;;;;5036604;28;20320;-64
2022/07/30 09:13:24;;;;;;;47.67;32.63;;;21.20;99.90;;;;;;5054857;28;20652;-63
2022/07/30 09:15:49;;;;;;;40.42;28.45;;;21.20;99.90;;;;;;5053070;28;20217;-64
2022/07/30 09:18:35;;;;;;;38.10;27.40;;;21.20;99.90;;;;;;5054564;28;20630;-63
2022/07/30 09:21:23;;;;;;;34.72;25.33;;;21.20;99.90;;;;;;5054609;28;20186;-64
2022/07/30 09:24:10;;;;;;;39.42;25.30;;;21.20;99.90;;;;;;5054538;28;20154;-64
2022/07/30 09:26:54;;;;;;;33.17;23.02;;;21.30;99.90;;;;;;5054572;28;20159;-64
2022/07/30 09:29:22;;;;;;;32.28;20.92;;;21.60;99.90;;;;;;5054337;28;20206;-64
2022/07/30 09:32:08;;;;;;;30.52;19.35;;;21.60;99.90;;;;;;5054388;28;20178;-64
2022/07/30 09:34:38;;;;;;;29.40;18.70;;;21.60;99.90;;;;;;5062115;28;20295;-64
2022/07/30 09:37:10;;;;;;;28.30;20.17;;;21.80;99.90;;;;;;5074218;28;20219;-62
2022/07/30 09:39:37;;;;;;;29.42;18.95;;;21.90;99.90;;;;;;5073540;28;20217;-62
2022/07/30 09:42:18;;;;;;;27.85;19.17;;;21.90;99.90;;;;;;5074140;28;20205;-63
2022/07/30 09:44:44;;;;;;;31.55;21.05;;;22.10;99.90;;;;;;5074140;28;20197;-62
2022/07/30 09:47:32;;;;;;;34.00;20.13;;;22.20;99.90;;;;;;5073875;28;20175;-63
2022/07/30 09:50:09;;;;;;;23.92;15.57;;;22.30;99.90;;;;;;5074099;28;20170;-62
2022/07/30 09:52:36;;;;;;;22.58;13.95;;;22.20;99.90;;;;;;5073887;28;20192;-62
2022/07/30 09:55:03;;;;;;;20.27;12.77;;;22.30;99.90;;;;;;5073657;28;20189;-63
2022/07/30 09:57:29;;;;;;;20.60;13.57;;;22.50;99.90;;;;;;5073983;28;20654;-63
2022/07/30 10:00:16;;;;;;;25.35;14.32;;;22.60;99.90;;;;;;5073749;28;20229;-62
2022/07/30 10:02:43;;;;;;;20.92;12.90;;;22.80;99.90;;;;;;5074141;28;20519;-63
2022/07/30 10:05:11;;;;;;;23.27;13.25;;;22.80;99.90;;;;;;5073682;28;20572;-62
2022/07/30 10:07:38;;;;;;;19.67;11.90;;;22.70;99.90;;;;;;5073770;28;20176;-62
2022/07/30 10:10:04;;;;;;;17.48;10.73;;;22.70;99.90;;;;;;5074544;28;20661;-65
2022/07/30 10:12:32;;;;;;;23.63;12.45;;;22.70;99.90;;;;;;5074832;28;20182;-65
2022/07/30 10:15:01;;;;;;;21.55;12.98;;;22.60;99.90;;;;;;5074387;28;20194;-65
2022/07/30 10:17:29;;;;;;;29.85;16.38;;;22.70;99.90;;;;;;5073133;28;20284;-64
2022/07/30 10:19:55;;;;;;;21.70;13.18;;;22.60;99.90;;;;;;5074798;28;20300;-65
2022/07/30 10:22:21;;;;;;;26.52;15.40;;;22.60;99.90;;;;;;5074688;28;20208;-65
2022/07/30 10:24:47;;;;;;;26.88;16.02;;;22.60;99.90;;;;;;5072669;28;20197;-65
2022/07/30 10:27:13;;;;;;;24.95;13.25;;;22.80;99.90;;;;;;5056840;28;20637;-65
2022/07/30 10:29:39;;;;;;;24.77;15.90;;;22.90;99.90;;;;;;5074813;28;20180;-65
2022/07/30 10:32:05;;;;;;;28.65;16.38;;;23.00;99.90;;;;;;5074319;28;20173;-65
2022/07/30 10:34:32;;;;;;;36.60;17.00;;;23.10;99.90;;;;;;5056847;28;20206;-65
2022/07/30 10:37:03;;;;;;;25.02;14.43;;;23.30;99.90;;;;;;5074951;28;20170;-65
2022/07/30 10:39:36;;;;;;;24.48;14.90;;;23.20;99.90;;;;;;5074452;28;20646;-65
2022/07/30 10:42:05;;;;;;;30.73;16.52;;;23.40;99.90;;;;;;5074458;28;20178;-65
2022/07/30 10:44:54;;;;;;;28.33;16.60;;;23.40;99.90;;;;;;5074345;28;20196;-66
2022/07/30 10:47:24;;;;;;;29.17;13.23;;;23.40;99.90;;;;;;5075286;28;20194;-66
2022/07/30 10:50:08;;;;;;;21.25;12.85;;;23.50;99.90;;;;;;5075767;28;20201;-65
2022/07/30 10:52:52;;;;;;;23.33;11.77;;;23.60;99.90;;;;;;5074764;28;20213;-65
2022/07/30 10:55:20;;;;;;;22.65;13.48;;;23.70;99.90;;;;;;5074607;28;20658;-65
2022/07/30 10:58:08;;;;;;;25.02;14.43;;;23.60;99.90;;;;;;5074831;28;20188;-65
2022/07/30 11:00:54;;;;;;;21.30;12.23;;;23.40;99.90;;;;;;5078087;28;20200;-63
2022/07/30 11:03:27;;;;;;;22.67;12.68;;;23.70;99.90;;;;;;5059178;28;20173;-63
2022/07/30 11:06:18;;;;;;;21.83;11.70;;;23.80;99.90;;;;;;5077189;28;20194;-63
2022/07/30 11:08:47;;;;;;;22.92;13.13;;;23.90;99.90;;;;;;5075105;28;20212;-63
2022/07/30 11:11:21;;;;;;;20.27;11.35;;;24.10;99.90;;;;;;5076777;28;20154;-63
2022/07/30 11:13:59;;;;;;;16.85;9.00;;;24.30;99.90;;;;;;5077107;28;20165;-63
2022/07/30 11:16:31;;;;;;;17.90;10.20;;;24.50;99.90;;;;;;5076862;28;20193;-63
2022/07/30 11:19:15;;;;;;;11.30;7.28;;;24.60;99.90;;;;;;5076769;28;20193;-64
2022/07/30 11:21:42;;;;;;;11.40;7.40;;;24.60;99.90;;;;;;5092667;28;20620;-63
2022/07/30 11:24:45;;;;;;;12.75;7.75;;;24.80;99.90;;;;;;5077300;28;20196;-63
2022/07/30 11:27:36;;;;;;;17.30;9.45;;;24.70;99.90;;;;;;5076697;28;20173;-63
2022/07/30 11:30:06;;;;;;;21.13;11.80;;;24.80;99.90;;;;;;5076665;28;20213;-64
2022/07/30 11:32:33;;;;;;;21.20;12.45;;;24.80;99.90;;;;;;5076697;28;20248;-63
2022/07/30 11:35:25;;;;;;;21.92;13.35;;;24.90;99.90;;;;;;5076652;28;20209;-63
2022/07/30 11:38:14;;;;;;;21.52;13.40;;;24.80;99.90;;;;;;5076674;28;20174;-63
2022/07/30 11:40:47;;;;;;;21.40;12.90;;;25.10;99.90;;;;;;5076645;28;20189;-63
2022/07/30 11:43:18;;;;;;;21.88;14.77;;;25.40;99.90;;;;;;5076486;28;20186;-63
2022/07/30 11:46:06;;;;;;;19.27;12.38;;;25.40;99.90;;;;;;5076564;28;20554;-63
2022/07/30 11:48:33;;;;;;;23.77;13.70;;;25.40;99.90;;;;;;5076932;28;20503;-63
2022/07/30 11:50:59;;;;;;;21.63;13.82;;;25.50;99.90;;;;;;5076895;28;20170;-63
2022/07/30 11:53:25;;;;;;;21.05;14.35;;;25.50;99.90;;;;;;5058117;28;20181;-63
2022/07/30 11:55:56;;;;;;;22.17;14.40;;;25.50;99.90;;;;;;5075830;28;20201;-63
2022/07/30 11:58:29;;;;;;;23.02;14.10;;;25.40;99.90;;;;;;5076466;28;20189;-63
2022/07/30 12:00:59;;;;;;;18.23;14.50;;;25.20;99.90;;;;;;5076209;28;20255;-63
2022/07/30 12:03:27;;;;;;;18.77;12.60;;;24.80;99.90;;;;;;5076000;28;20170;-63
2022/07/30 12:05:54;;;;;;;17.35;12.15;;;24.50;99.90;;;;;;5075843;28;20273;-62
2022/07/30 12:08:21;;;;;;;19.15;11.57;;;24.30;99.90;;;;;;5075908;28;20689;-63
2022/07/30 12:10:58;;;;;;;15.50;8.45;;;24.10;99.90;;;;;;5075376;28;20305;-63
2022/07/30 12:13:24;;;;;;;10.63;7.93;;;23.80;99.90;;;;;;5075983;28;20595;-62
2022/07/30 12:15:50;;;;;;;13.85;7.75;;;23.90;99.90;;;;;;5075603;28;20205;-63
2022/07/30 12:18:29;;;;;;;11.52;7.50;;;24.30;99.90;;;;;;5075574;28;20223;-63
2022/07/30 12:21:03;;;;;;;10.60;6.53;;;24.60;99.90;;;;;;5075552;28;20199;-62
2022/07/30 12:23:30;;;;;;;13.35;7.10;;;25.00;99.90;;;;;;5075940;28;20595;-63
2022/07/30 12:25:57;;;;;;;12.05;6.38;;;25.00;99.90;;;;;;5075251;28;20247;-63
2022/07/30 12:28:28;;;;;;;12.95;6.78;;;25.00;99.90;;;;;;5091072;28;20220;-63
2022/07/30 12:30:55;;;;;;;9.80;7.05;;;25.10;99.90;;;;;;5075645;28;20158;-63
2022/07/30 12:33:24;;;;;;;12.35;7.43;;;25.20;99.90;;;;;;5075458;28;20178;-63
2022/07/30 12:35:52;;;;;;;23.83;9.63;;;25.30;99.90;;;;;;5075271;28;20205;-64
2022/07/30 12:38:20;;;;;;;15.95;9.50;;;25.20;99.90;;;;;;5075268;28;20173;-63
2022/07/30 12:40:57;;;;;;;12.82;9.25;;;24.80;99.90;;;;;;5075095;28;20680;-63